Terminal Aerodrome Forecast
Issued by NWS Duluth, MN

Home | Current Version | Previous Version | Text Only | Print | Product List | Glossary On
Versions: 1 2 3 4 5 6 7 8 9 10 11 12 13 14 15 16 17 18 19 20 21 22 23 24 25 26 27 28 29 30 31 32 33 34 35 36 37 38 39 40 41 42 43 44 45
000
FTUS43 KDLH 200500 AAA
TAFDLH
TAF AMD
KDLH 200553Z 2006/2106 VRB04KT P6SM BKN009 OVC025
      TEMPO 2006/2007 1SM BR OVC002
     FM200700 VRB03KT 3SM BR OVC003
      TEMPO 2009/2012 1/2SM FG OVC002
     FM201400 12004KT P6SM SCT009
     FM201600 11006KT P6SM SKC
     FM202300 08007KT P6SM BKN250=

USA.gov is the U.S. government's official web portal to all federal, state and local government web resources and services.